Home > Products > Valid Products > TAF

000
FTUS44 KHUN 241120
TAFHSV
TAF
KHSV 241120Z 2412/2512 23015G30KT P6SM BKN025
     FM241600 26015G25KT P6SM BKN030
     FM242000 26010G20KT P6SM SCT030
     FM250000 VRB05KT P6SM SKC=



000
FTUS44 KHUN 241120
TAFMSL
TAF
KMSL 241120Z 2412/2512 23015G30KT P6SM BKN025
     FM241500 26015G25KT P6SM BKN030
     FM241900 27010G20KT P6SM SCT030
     FM242300 VRB05KT P6SM SKC=



000
FTUS44 KHUN 241120
TAFHSV
TAF
KHSV 241120Z 2412/2512 23015G30KT P6SM BKN025
     FM241600 26015G25KT P6SM BKN030
     FM242000 26010G20KT P6SM SCT030
     FM250000 VRB05KT P6SM SKC=



000
FTUS44 KHUN 241120
TAFMSL
TAF
KMSL 241120Z 2412/2512 23015G30KT P6SM BKN025
     FM241500 26015G25KT P6SM BKN030
     FM241900 27010G20KT P6SM SCT030
     FM242300 VRB05KT P6SM SKC=



000
FTUS44 KHUN 240559 CCA
TAFMSL
TAF COR
KMSL 240559Z 2406/2506 21012G20KT P6SM BKN015 OVC035
     FM241200 23012G20KT P6SM VCSH BKN025 BKN035
     FM241400 26010KT P6SM SCT030 SCT250
     FM242300 VRB05KT P6SM SKC=



000
FTUS44 KHUN 240540
TAFMSL
TAF
KMSL 240540Z 2406/2506 21012G20KT P6SM SCT015 BKN035
     FM241200 23012G20KT P6SM VCSH BKN025 BKN035
     FM241400 26010KT P6SM SCT030 SCT250
     FM242300 VRB05KT P6SM SKC=



000
FTUS44 KHUN 240540
TAFHSV
TAF
KHSV 240540Z 2406/2506 21012G20KT P6SM BKN015 OVC035
     FM241400 23012G20KT P6SM VCSH BKN025 BKN035
     FM241600 26010KT P6SM SCT030 SCT250
     FM242300 VRB05KT P6SM SKC=



000
FTUS44 KHUN 240540
TAFHSV
TAF
KHSV 240540Z 2406/2506 21012G20KT P6SM BKN015 OVC035
     FM241400 23012G20KT P6SM VCSH BKN025 BKN035
     FM241600 26010KT P6SM SCT030 SCT250
     FM242300 VRB05KT P6SM SKC=



000
FTUS44 KHUN 240540
TAFMSL
TAF
KMSL 240540Z 2406/2506 21012G20KT P6SM SCT015 BKN035
     FM241200 23012G20KT P6SM VCSH BKN025 BKN035
     FM241400 26010KT P6SM SCT030 SCT250
     FM242300 VRB05KT P6SM SKC=



000
FTUS44 KHUN 232343 CCA
TAFMSL
TAF COR
KMSL 232343Z 2400/2424 17012G20KT P6SM VCSH SCT025 BKN040 OVC070
     FM240200 20012G20KT P6SM BKN025 OVC040
     FM241200 22012G20KT P6SM VCSH BKN025 OVC040
     FM241500 26010KT P6SM SCT035 SCT250=



000
FTUS44 KHUN 232343 CCA
TAFHSV
TAF COR
KHSV 232343Z 2400/2424 17012G20KT P6SM VCSH SCT025 BKN040 OVC070
     FM240200 20012G20KT P6SM BKN025 OVC040
     FM241400 22012G20KT P6SM VCSH BKN025 OVC040
     FM241700 26010KT P6SM SCT035 SCT250=



000
FTUS44 KHUN 232343 CCA
TAFMSL
TAF COR
KMSL 232343Z 2400/2424 17012G20KT P6SM VCSH SCT025 BKN040 OVC070
     FM240200 20012G20KT P6SM BKN025 OVC040
     FM241200 22012G20KT P6SM VCSH BKN025 OVC040
     FM241500 26010KT P6SM SCT035 SCT250=



000
FTUS44 KHUN 232343 CCA
TAFHSV
TAF COR
KHSV 232343Z 2400/2424 17012G20KT P6SM VCSH SCT025 BKN040 OVC070
     FM240200 20012G20KT P6SM BKN025 OVC040
     FM241400 22012G20KT P6SM VCSH BKN025 OVC040
     FM241700 26010KT P6SM SCT035 SCT250=



000
FTUS44 KHUN 232341
TAFHSV
TAF
KHSV 232341Z 2400/2424 17012G20KT P6SM VCSH SCT025 BKN040 OVC070
     FM240200 20012G20KT P6SM BKN025 OVC040
     FM241200 22012G20KT P6SM VCSH BKN025 OVC040
     FM241500 26010KT P6SM SCT035 SCT250=



000
FTUS44 KHUN 232341
TAFMSL
TAF
KMSL 232341Z 2400/2424 17012G20KT P6SM VCSH SCT025 BKN040 OVC070
     FM240200 20012G20KT P6SM BKN025 OVC040
     FM241400 22012G20KT P6SM VCSH BKN025 OVC040
     FM241700 26010KT P6SM SCT035 SCT250=



000
FTUS44 KHUN 232341
TAFHSV
TAF
KHSV 232341Z 2400/2424 17012G20KT P6SM VCSH SCT025 BKN040 OVC070
     FM240200 20012G20KT P6SM BKN025 OVC040
     FM241200 22012G20KT P6SM VCSH BKN025 OVC040
     FM241500 26010KT P6SM SCT035 SCT250=



000
FTUS44 KHUN 232341
TAFMSL
TAF
KMSL 232341Z 2400/2424 17012G20KT P6SM VCSH SCT025 BKN040 OVC070
     FM240200 20012G20KT P6SM BKN025 OVC040
     FM241400 22012G20KT P6SM VCSH BKN025 OVC040
     FM241700 26010KT P6SM SCT035 SCT250=



000
FTUS44 KHUN 231728
TAFHSV
TAF
KHSV 231728Z 2318/2418 12017G22KT 6SM BR VCSH BKN015 OVC025
     FM232000 18015G20KT 6SM -SHRA OVC009
     FM240000 18015G20KT P6SM VCSH OVC015
     FM240600 21014G18KT P6SM BKN030
     FM241300 25017G22KT P6SM OVC050=



000
FTUS44 KHUN 231728
TAFMSL
TAF
KMSL 231728Z 2318/2418 14015G20KT 6SM -SHRA OVC009
     FM232300 20014G18KT 6SM BR VCSH OVC015
     FM240500 22012G16KT P6SM BKN030
     FM241200 26017G22KT P6SM OVC050=



000
FTUS44 KHUN 231728
TAFHSV
TAF
KHSV 231728Z 2318/2418 12017G22KT 6SM BR VCSH BKN015 OVC025
     FM232000 18015G20KT 6SM -SHRA OVC009
     FM240000 18015G20KT P6SM VCSH OVC015
     FM240600 21014G18KT P6SM BKN030
     FM241300 25017G22KT P6SM OVC050=



000
FTUS44 KHUN 231728
TAFMSL
TAF
KMSL 231728Z 2318/2418 14015G20KT 6SM -SHRA OVC009
     FM232300 20014G18KT 6SM BR VCSH OVC015
     FM240500 22012G16KT P6SM BKN030
     FM241200 26017G22KT P6SM OVC050=



000
FTUS44 KHUN 231138
TAFHSV
TAF
KHSV 231138Z 2312/2412 12015G20KT P6SM VCSH SCT020 BKN040
      TEMPO 2312/2314 4SM -SHRA BKN020
     FM231400 12017G22KT 6SM -SHRA OVC025
     FM232200 18015G20KT 6SM BR VCSH OVC012
     FM240600 20014G18KT P6SM BKN030=



000
FTUS44 KHUN 231138
TAFMSL
TAF
KMSL 231138Z 2312/2412 12012G17KT P6SM VCSH OVC020
     FM231500 14015G20KT 6SM -SHRA OVC030
     FM232100 20014G18KT 6SM BR VCSH OVC010
     FM240500 22012G16KT P6SM BKN030=



000
FTUS44 KHUN 231138
TAFMSL
TAF
KMSL 231138Z 2312/2412 12012G17KT P6SM VCSH OVC020
     FM231500 14015G20KT 6SM -SHRA OVC030
     FM232100 20014G18KT 6SM BR VCSH OVC010
     FM240500 22012G16KT P6SM BKN030=



000
FTUS44 KHUN 231138
TAFHSV
TAF
KHSV 231138Z 2312/2412 12015G20KT P6SM VCSH SCT020 BKN040
      TEMPO 2312/2314 4SM -SHRA BKN020
     FM231400 12017G22KT 6SM -SHRA OVC025
     FM232200 18015G20KT 6SM BR VCSH OVC012
     FM240600 20014G18KT P6SM BKN030=



000
FTUS44 KHUN 230846 AAA
TAFHSV
TAF AMD
KHSV 230846Z 2309/2406 12012G17KT P6SM BKN025
     FM231000 11012G20KT P6SM VCSH BKN015 OVC025
     FM231500 11015G25KT P6SM SHRA BKN008 BKN015 OVC025
     FM231900 13015G25KT P6SM SHRA VCTS BKN008CB BKN015 OVC025
     FM232200 19012G20KT P6SM BKN015 OVC025=



000
FTUS44 KHUN 230846 AAA
TAFHSV
TAF AMD
KHSV 230846Z 2309/2406 12012G17KT P6SM BKN025
     FM231000 11012G20KT P6SM VCSH BKN015 OVC025
     FM231500 11015G25KT P6SM SHRA BKN008 BKN015 OVC025
     FM231900 13015G25KT P6SM SHRA VCTS BKN008CB BKN015 OVC025
     FM232200 19012G20KT P6SM BKN015 OVC025=



000
FTUS44 KHUN 230542
TAFHSV
TAF
KHSV 230542Z 2306/2406 13010KT P6SM SCT025 BKN035 OVC250
     FM231000 11012G20KT P6SM VCSH BKN015 OVC025
     FM231500 11015G25KT P6SM SHRA BKN008 BKN015 OVC025
     FM231900 13015G25KT P6SM SHRA VCTS BKN008CB BKN015 OVC025
     FM232200 19012G20KT P6SM BKN015 OVC025=



000
FTUS44 KHUN 230542
TAFMSL
TAF
KMSL 230542Z 2306/2406 13008KT P6SM BKN025 OVC250
     FM231000 11012G20KT P6SM BKN015 OVC025
     FM231300 11015G25KT P6SM VCSH BKN008 BKN015 OVC025
     FM231700 13015G25KT P6SM SHRA VCTS BKN008CB BKN015 OVC025
     FM232000 19012G20KT P6SM BKN015 OVC025=



000
FTUS44 KHUN 230542
TAFHSV
TAF
KHSV 230542Z 2306/2406 13010KT P6SM SCT025 BKN035 OVC250
     FM231000 11012G20KT P6SM VCSH BKN015 OVC025
     FM231500 11015G25KT P6SM SHRA BKN008 BKN015 OVC025
     FM231900 13015G25KT P6SM SHRA VCTS BKN008CB BKN015 OVC025
     FM232200 19012G20KT P6SM BKN015 OVC025=



000
FTUS44 KHUN 230542
TAFMSL
TAF
KMSL 230542Z 2306/2406 13008KT P6SM BKN025 OVC250
     FM231000 11012G20KT P6SM BKN015 OVC025
     FM231300 11015G25KT P6SM VCSH BKN008 BKN015 OVC025
     FM231700 13015G25KT P6SM SHRA VCTS BKN008CB BKN015 OVC025
     FM232000 19012G20KT P6SM BKN015 OVC025=



000
FTUS44 KHUN 222340
TAFMSL
TAF
KMSL 222340Z 2300/2324 13008KT P6SM BKN250
     FM230300 13010KT P6SM SCT035 BKN050 OVC250
     FM231000 11012G20KT P6SM VCSH BKN025 OVC050
     FM231500 11012G20KT P6SM RA VCTS BKN015CB OVC025
     FM232200 19012G20KT P6SM VCSH BKN015 OVC025=



000
FTUS44 KHUN 222340
TAFHSV
TAF
KHSV 222340Z 2300/2324 13008KT P6SM BKN250
     FM230300 13010KT P6SM SCT035 BKN050 OVC250
     FM231000 11012G20KT P6SM VCSH BKN025 OVC050
     FM231500 11012G20KT P6SM RA VCTS BKN015CB OVC025
     FM232200 19012G20KT P6SM VCSH BKN015 OVC025=



000
FTUS44 KHUN 222340
TAFMSL
TAF
KMSL 222340Z 2300/2324 13008KT P6SM BKN250
     FM230300 13010KT P6SM SCT035 BKN050 OVC250
     FM231000 11012G20KT P6SM VCSH BKN025 OVC050
     FM231500 11012G20KT P6SM RA VCTS BKN015CB OVC025
     FM232200 19012G20KT P6SM VCSH BKN015 OVC025=



000
FTUS44 KHUN 222340
TAFHSV
TAF
KHSV 222340Z 2300/2324 13008KT P6SM BKN250
     FM230300 13010KT P6SM SCT035 BKN050 OVC250
     FM231000 11012G20KT P6SM VCSH BKN025 OVC050
     FM231500 11012G20KT P6SM RA VCTS BKN015CB OVC025
     FM232200 19012G20KT P6SM VCSH BKN015 OVC025=



000
FTUS44 KHUN 221729
TAFMSL
TAF
KMSL 221729Z 2218/2318 15011G16KT P6SM SCT090 BKN250
     FM230000 14008KT P6SM SCT025 OVC050
     FM230600 14005KT P6SM VCSH OVC015
     FM230900 13007KT P6SM -RA OVC015=



000
FTUS44 KHUN 221729
TAFHSV
TAF
KHSV 221729Z 2218/2318 15012G17KT P6SM SCT100 BKN250
     FM230100 12009KT P6SM SCT030 OVC070
     FM230800 14005KT P6SM VCSH OVC015
     FM231000 13007KT P6SM -RA OVC015=



000
FTUS44 KHUN 221729
TAFMSL
TAF
KMSL 221729Z 2218/2318 15011G16KT P6SM SCT090 BKN250
     FM230000 14008KT P6SM SCT025 OVC050
     FM230600 14005KT P6SM VCSH OVC015
     FM230900 13007KT P6SM -RA OVC015=



000
FTUS44 KHUN 221729
TAFHSV
TAF
KHSV 221729Z 2218/2318 15012G17KT P6SM SCT100 BKN250
     FM230100 12009KT P6SM SCT030 OVC070
     FM230800 14005KT P6SM VCSH OVC015
     FM231000 13007KT P6SM -RA OVC015=



000
FTUS44 KHUN 221135
TAFMSL
TAF
KMSL 221135Z 2212/2312 14007KT P6SM SCT100
     FM221600 15011G16KT P6SM SCT090 BKN250
     FM230000 14008KT P6SM SCT025 OVC050 PROB30 2306/2312 5SM -SHRA
      OVC025=



000
FTUS44 KHUN 221135
TAFHSV
TAF
KHSV 221135Z 2212/2312 12010KT P6SM SCT120
     FM221700 15012G17KT P6SM SCT100 BKN250
     FM230100 12009KT P6SM SCT030 OVC070 PROB30 2307/2312 5SM -SHRA
      OVC030=



000
FTUS44 KHUN 221135
TAFHSV
TAF
KHSV 221135Z 2212/2312 12010KT P6SM SCT120
     FM221700 15012G17KT P6SM SCT100 BKN250
     FM230100 12009KT P6SM SCT030 OVC070 PROB30 2307/2312 5SM -SHRA
      OVC030=



000
FTUS44 KHUN 221135
TAFMSL
TAF
KMSL 221135Z 2212/2312 14007KT P6SM SCT100
     FM221600 15011G16KT P6SM SCT090 BKN250
     FM230000 14008KT P6SM SCT025 OVC050 PROB30 2306/2312 5SM -SHRA
      OVC025=



000
FTUS44 KHUN 220520
TAFMSL
TAF
KMSL 220520Z 2206/2306 VRB05KT P6SM SCT040 BKN120
     FM221300 14009KT P6SM SCT120 BKN250
     FM230100 14009KT P6SM BKN030 OVC070=



000
FTUS44 KHUN 220520
TAFHSV
TAF
KHSV 220520Z 2206/2306 11005KT P6SM SCT050 BKN120
     FM221300 14011KT P6SM SCT120 BKN250
     FM230100 15010KT P6SM BKN030 OVC070=



000
FTUS44 KHUN 220520
TAFHSV
TAF
KHSV 220520Z 2206/2306 11005KT P6SM SCT050 BKN120
     FM221300 14011KT P6SM SCT120 BKN250
     FM230100 15010KT P6SM BKN030 OVC070=



000
FTUS44 KHUN 220520
TAFMSL
TAF
KMSL 220520Z 2206/2306 VRB05KT P6SM SCT040 BKN120
     FM221300 14009KT P6SM SCT120 BKN250
     FM230100 14009KT P6SM BKN030 OVC070=



000
FTUS44 KHUN 212320
TAFHSV
TAF
KHSV 212320Z 2200/2224 11005KT P6SM SCT050 BKN120
     FM221300 14011KT P6SM SCT120 BKN250=



000
FTUS44 KHUN 212320
TAFMSL
TAF
KMSL 212320Z 2200/2224 VRB05KT P6SM SCT040 BKN120
     FM221300 14007KT P6SM SCT120 BKN250=



000
FTUS44 KHUN 212320
TAFMSL
TAF
KMSL 212320Z 2200/2224 VRB05KT P6SM SCT040 BKN120
     FM221300 14007KT P6SM SCT120 BKN250=



000
FTUS44 KHUN 212320
TAFHSV
TAF
KHSV 212320Z 2200/2224 11005KT P6SM SCT050 BKN120
     FM221300 14011KT P6SM SCT120 BKN250=



000
FTUS44 KHUN 211728
TAFMSL
TAF
KMSL 211728Z 2118/2218 12005KT P6SM SKC
     FM212300 VRB03KT P6SM SCT040 BKN120
     FM221300 14007KT P6SM SCT120 BKN250=



000
FTUS44 KHUN 211728
TAFHSV
TAF
KHSV 211728Z 2118/2218 11007KT P6SM SKC
     FM220000 11005KT P6SM SCT050 BKN120
     FM221300 14011KT P6SM SCT120 BKN250=



000
FTUS44 KHUN 211728
TAFMSL
TAF
KMSL 211728Z 2118/2218 12005KT P6SM SKC
     FM212300 VRB03KT P6SM SCT040 BKN120
     FM221300 14007KT P6SM SCT120 BKN250=



000
FTUS44 KHUN 211728
TAFHSV
TAF
KHSV 211728Z 2118/2218 11007KT P6SM SKC
     FM220000 11005KT P6SM SCT050 BKN120
     FM221300 14011KT P6SM SCT120 BKN250=



    US Dept of Commerce
    National Oceanic and Atmospheric Administration
    National Weather Service
    1325 East West Highway
    Silver Spring, MD 20910
    Page Author: NWS Internet Services Team
Disclaimer
Information Quality
Credits
Glossary
Privacy Policy
Freedom of Information Act (FOIA)
About Us
Career Opportunities